This is the latest recevied weather packets stored in our database for station/object ES0THZ-13. If no packets are shown the sender has not sent any weather packets the latest 10 day(s).
| Time | Temp. | Humidity | Pressure | Rain* | Wind** | Luminosity | Snow |
|---|---|---|---|---|---|---|---|
| 1777795206 | 15.56° C | 71% | 1003.9 hPa | - | - | - | - |
| 1777794141 | 13.33° C | 71% | 1003 hPa | - | - | - | - |
| 1777793086 | 15° C | 71% | 1003.7 hPa | - | - | - | - |
| 1777792041 | 15° C | 71% | 1004.3 hPa | - | - | - | - |
| 1777790971 | 13.33° C | 73% | 1003 hPa | - | - | - | - |
| 1777789881 | 13.33° C | 74% | 1005.2 hPa | - | - | - | - |
| 1777788781 | 14.44° C | 73% | 1003.6 hPa | - | - | - | - |
| 1777787751 | 13.33° C | 73% | 1005.1 hPa | - | - | - | - |
| 1777786636 | 10.56° C | 77% | 1004.7 hPa | - | - | - | - |
| 1777785626 | 11.11° C | 77% | 1004.1 hPa | - | - | - | - |
| 1777784531 | 10° C | 77% | 1003.9 hPa | - | - | - | - |
| 1777783436 | 10° C | 77% | 1004.5 hPa | - | - | - | - |
| 1777782286 | 11.67° C | 75% | 1003.2 hPa | - | - | - | - |
| 1777781141 | 10° C | 76% | 1003.3 hPa | - | - | - | - |
| 1777780066 | 10° C | 77% | 1003.4 hPa | - | - | - | - |
| 1777778966 | 9.44° C | 77% | 1003.1 hPa | - | - | - | - |
| 1777777886 | 8.33° C | 78% | 1004 hPa | - | - | - | - |
| 1777776806 | 7.22° C | 79% | 1003.3 hPa | - | - | - | - |
| 1777775761 | 7.22° C | 79% | 1003.2 hPa | - | - | - | - |
| 1777774596 | 7.22° C | 79% | 1003.5 hPa | - | - | - | - |
| 1777773511 | 7.22° C | 78% | 1003.4 hPa | - | - | - | - |
| 1777772441 | 7.78° C | 78% | 1003.8 hPa | - | - | - | - |
| 1777771271 | 8.33° C | 78% | 1004 hPa | - | - | - | - |
| 1777770111 | 8.33° C | 77% | 1003.4 hPa | - | - | - | - |
| 1777769091 | 8.33° C | 77% | 1003.6 hPa | - | - | - | - |
* Rain since midnight (hover to see other rain measurements)
** Current wind speed in m/s (hover to see current wind gust speed)